createdAt,value
2017-07-17T00:00:48.796Z,13.74
2017-07-17T00:01:49.412Z,13.71
2017-07-17T00:02:50.032Z,13.70
2017-07-17T00:03:50.645Z,13.74
2017-07-17T00:04:51.263Z,13.70
2017-07-17T00:05:51.955Z,13.63
2017-07-17T00:06:52.568Z,13.60
2017-07-17T00:07:53.190Z,13.57
2017-07-17T00:08:53.803Z,13.52
2017-07-17T00:09:54.419Z,13.52
2017-07-17T00:10:55.086Z,13.52
2017-07-17T00:11:55.704Z,13.46
2017-07-17T00:12:56.323Z,13.47
2017-07-17T00:13:56.939Z,13.50
2017-07-17T00:14:57.562Z,13.47
2017-07-17T00:15:58.231Z,13.47
2017-07-17T00:16:58.846Z,13.44
2017-07-17T00:17:59.462Z,13.42
2017-07-17T00:19:00.079Z,13.35
2017-07-17T00:20:00.695Z,13.33
2017-07-17T00:21:01.363Z,13.39
2017-07-17T00:22:01.982Z,13.31
2017-07-17T00:23:02.599Z,13.35
2017-07-17T00:24:03.215Z,13.35
2017-07-17T00:25:03.831Z,13.30
2017-07-17T00:26:04.498Z,13.20
2017-07-17T00:27:05.118Z,13.31
2017-07-17T00:28:05.760Z,13.28
2017-07-17T00:29:06.373Z,13.18
2017-07-17T00:30:07.023Z,13.25
2017-07-17T00:31:07.674Z,13.25
2017-07-17T00:32:08.289Z,13.23
2017-07-17T00:33:08.907Z,13.20
2017-07-17T00:34:09.529Z,13.22
2017-07-17T00:35:10.143Z,13.19
2017-07-17T00:36:10.810Z,13.22
2017-07-17T00:37:11.428Z,13.20
2017-07-17T00:38:12.045Z,13.22
2017-07-17T00:39:12.686Z,13.25
2017-07-17T00:40:13.288Z,13.19
2017-07-17T00:41:13.954Z,13.23
2017-07-17T00:42:14.571Z,13.20
2017-07-17T00:43:15.187Z,13.20
2017-07-17T00:44:15.804Z,13.31
2017-07-17T00:45:16.421Z,13.28
2017-07-17T00:46:17.090Z,13.35
2017-07-17T00:47:17.707Z,13.27
2017-07-17T00:48:18.323Z,13.20
2017-07-17T00:49:18.939Z,13.25
2017-07-17T00:50:19.568Z,13.25
2017-07-17T00:51:20.232Z,13.23
2017-07-17T00:52:20.851Z,13.18
2017-07-17T00:53:21.465Z,13.30
2017-07-17T00:54:22.081Z,13.30
2017-07-17T00:55:22.735Z,13.27
2017-07-17T00:56:23.399Z,13.31
2017-07-17T00:57:24.030Z,13.22
2017-07-17T00:58:24.636Z,13.28
2017-07-17T00:59:25.251Z,13.20
2017-07-17T01:00:25.867Z,13.35
2017-07-17T01:01:26.533Z,13.15
2017-07-17T01:02:27.179Z,13.19
2017-07-17T01:03:27.788Z,13.23
2017-07-17T01:04:28.430Z,13.15
2017-07-17T01:05:29.077Z,13.18
2017-07-17T01:06:29.728Z,13.16
2017-07-17T01:07:30.345Z,13.27
2017-07-17T01:08:30.960Z,13.20
2017-07-17T01:09:31.576Z,13.30
2017-07-17T01:10:32.224Z,13.25
2017-07-17T01:11:32.878Z,13.30
2017-07-17T01:12:33.493Z,13.23
2017-07-17T01:13:34.137Z,13.23
2017-07-17T01:14:34.768Z,13.38
2017-07-17T01:15:35.372Z,13.37
2017-07-17T01:16:36.039Z,13.38
2017-07-17T01:17:36.656Z,13.41
2017-07-17T01:18:37.336Z,13.31
2017-07-17T01:19:37.936Z,13.35
2017-07-17T01:20:38.554Z,13.31
2017-07-17T01:21:39.221Z,13.27
2017-07-17T01:22:39.837Z,13.25
2017-07-17T01:23:40.453Z,13.19
2017-07-17T01:24:41.068Z,13.27
2017-07-17T01:25:41.719Z,13.19
2017-07-17T01:26:42.386Z,13.30
2017-07-17T01:27:43.009Z,13.23
2017-07-17T01:28:43.628Z,13.23
2017-07-17T01:29:44.241Z,13.30
2017-07-17T01:30:44.863Z,13.37
2017-07-17T01:31:45.559Z,13.27
2017-07-17T01:32:46.195Z,13.33
2017-07-17T01:33:46.801Z,13.42
2017-07-17T01:34:47.408Z,13.41
2017-07-17T01:35:48.025Z,13.41
2017-07-17T01:36:48.940Z,13.49
2017-07-17T01:37:49.589Z,13.49
2017-07-17T01:38:50.190Z,13.41
2017-07-17T01:39:50.832Z,13.47
2017-07-17T01:40:51.436Z,13.33
2017-07-17T01:41:52.152Z,13.33
2017-07-17T01:42:52.801Z,13.37
2017-07-17T01:43:53.483Z,13.37
2017-07-17T01:44:54.081Z,13.27
2017-07-17T01:45:54.699Z,13.30
2017-07-17T01:46:55.367Z,13.30
2017-07-17T01:47:55.989Z,13.28
2017-07-17T01:48:56.638Z,13.27
2017-07-17T01:49:57.259Z,13.22
2017-07-17T01:50:57.873Z,13.28
2017-07-17T01:51:58.540Z,13.22
2017-07-17T01:52:59.158Z,13.18
2017-07-17T01:53:59.811Z,13.19
2017-07-17T01:55:00.425Z,13.25
2017-07-17T01:56:01.067Z,13.22
2017-07-17T01:57:01.719Z,13.27
2017-07-17T01:58:02.336Z,13.25
2017-07-17T01:59:02.986Z,13.27
2017-07-17T02:00:03.603Z,13.28
2017-07-17T02:01:04.223Z,13.31
2017-07-17T02:02:04.925Z,13.23
2017-07-17T02:03:05.541Z,13.38
2017-07-17T02:04:06.156Z,13.28
2017-07-17T02:05:06.773Z,13.37
2017-07-17T02:06:07.388Z,13.30
2017-07-17T02:07:08.054Z,13.25
2017-07-17T02:08:08.730Z,13.27
2017-07-17T02:09:09.333Z,13.35
2017-07-17T02:10:09.950Z,13.27
2017-07-17T02:11:10.599Z,13.33
2017-07-17T02:12:11.297Z,13.19
2017-07-17T02:13:11.914Z,13.19
2017-07-17T02:14:12.530Z,13.22
2017-07-17T02:15:13.180Z,13.13
2017-07-17T02:16:13.782Z,13.12
2017-07-17T02:17:14.452Z,13.13
2017-07-17T02:18:15.094Z,13.12
2017-07-17T02:19:15.697Z,13.15
2017-07-17T02:20:16.315Z,13.19
2017-07-17T02:21:16.936Z,13.18
2017-07-17T02:22:17.604Z,13.22
2017-07-17T02:23:18.225Z,13.15
2017-07-17T02:24:18.839Z,13.16
2017-07-17T02:25:19.459Z,13.16
2017-07-17T02:26:20.074Z,13.13
2017-07-17T02:27:20.740Z,13.13
2017-07-17T02:28:21.364Z,13.25
2017-07-17T02:29:21.977Z,13.11
2017-07-17T02:30:22.594Z,13.13
2017-07-17T02:31:23.211Z,13.12
2017-07-17T02:32:24.111Z,13.18
2017-07-17T02:33:24.729Z,13.16
2017-07-17T02:34:25.346Z,13.11
2017-07-17T02:35:25.965Z,13.12
2017-07-17T02:36:26.580Z,13.04
2017-07-17T02:37:27.280Z,13.19
2017-07-17T02:38:27.880Z,13.04
2017-07-17T02:39:28.529Z,13.11
2017-07-17T02:40:29.148Z,13.12
2017-07-17T02:41:29.762Z,13.08
2017-07-17T02:42:30.427Z,13.11
2017-07-17T02:43:31.045Z,13.08
2017-07-17T02:44:31.663Z,13.08
2017-07-17T02:45:32.277Z,13.04
2017-07-17T02:46:32.892Z,13.08
2017-07-17T02:47:33.585Z,13.16
2017-07-17T02:48:34.261Z,13.08
2017-07-17T02:49:34.864Z,13.04
2017-07-17T02:50:35.513Z,13.11
2017-07-17T02:51:36.114Z,13.18
2017-07-17T02:52:36.779Z,13.05
2017-07-17T02:53:37.429Z,13.12
2017-07-17T02:54:38.047Z,13.13
2017-07-17T02:55:38.664Z,13.08
2017-07-17T02:56:39.279Z,13.11
2017-07-17T02:57:39.974Z,13.13
2017-07-17T02:58:40.602Z,13.09
2017-07-17T02:59:41.208Z,13.09
2017-07-17T03:00:41.822Z,13.13
2017-07-17T03:01:42.444Z,13.12
2017-07-17T03:02:43.106Z,13.05
2017-07-17T03:03:43.729Z,13.08
2017-07-17T03:04:44.342Z,13.03
2017-07-17T03:05:44.957Z,13.11
2017-07-17T03:06:45.580Z,13.04
2017-07-17T03:07:46.244Z,13.13
2017-07-17T03:08:46.861Z,13.08
2017-07-17T03:09:47.476Z,13.04
2017-07-17T03:10:48.093Z,13.04
2017-07-17T03:11:48.742Z,13.03
2017-07-17T03:12:49.407Z,13.04
2017-07-17T03:13:50.024Z,13.05
2017-07-17T03:14:50.639Z,13.01
2017-07-17T03:15:51.281Z,13.01
2017-07-17T03:16:51.957Z,13.01
2017-07-17T03:17:52.642Z,13.01
2017-07-17T03:18:53.282Z,13.04
2017-07-17T03:19:53.877Z,13.03
2017-07-17T03:20:54.494Z,12.97
2017-07-17T03:21:55.112Z,13.01
2017-07-17T03:22:56.003Z,13.00
2017-07-17T03:23:56.607Z,12.98
2017-07-17T03:24:57.222Z,12.90
2017-07-17T03:25:57.838Z,12.97
2017-07-17T03:26:58.459Z,13.00
2017-07-17T03:27:59.155Z,12.97
2017-07-17T03:28:59.757Z,12.95
2017-07-17T03:30:00.374Z,13.04
2017-07-17T03:31:00.990Z,13.09
2017-07-17T03:32:01.607Z,13.00
2017-07-17T03:33:02.304Z,13.11
2017-07-17T03:34:02.951Z,13.05
2017-07-17T03:35:03.573Z,13.09
2017-07-17T03:36:04.186Z,13.01
2017-07-17T03:37:04.802Z,13.00
2017-07-17T03:38:05.470Z,13.01
2017-07-17T03:39:06.084Z,13.05
2017-07-17T03:40:06.709Z,13.04
2017-07-17T03:41:07.323Z,13.01
2017-07-17T03:42:07.942Z,13.05
2017-07-17T03:43:08.614Z,13.03
2017-07-17T03:44:09.228Z,13.09
2017-07-17T03:45:09.843Z,13.04
2017-07-17T03:46:10.459Z,13.00
2017-07-17T03:47:11.076Z,13.01
2017-07-17T03:48:11.744Z,12.97
2017-07-17T03:49:12.365Z,13.00
2017-07-17T03:50:12.977Z,13.00
2017-07-17T03:51:13.625Z,12.98
2017-07-17T03:52:14.241Z,13.00
2017-07-17T03:53:14.907Z,12.94
2017-07-17T03:54:15.524Z,12.91
2017-07-17T03:55:16.145Z,12.94
2017-07-17T03:56:16.765Z,12.93
2017-07-17T03:57:17.381Z,12.93
2017-07-17T03:58:18.071Z,12.95
2017-07-17T03:59:18.673Z,12.91
2017-07-17T04:00:19.290Z,12.90
2017-07-17T04:01:19.938Z,12.90
2017-07-17T04:02:20.553Z,12.90
2017-07-17T04:03:21.222Z,12.82
2017-07-17T04:04:21.863Z,12.80
2017-07-17T04:05:22.465Z,12.80
2017-07-17T04:06:23.081Z,12.67
2017-07-17T04:07:23.731Z,12.67
2017-07-17T04:08:24.403Z,12.78
2017-07-17T04:09:25.045Z,12.79
2017-07-17T04:10:25.649Z,12.80
2017-07-17T04:11:26.267Z,12.80
2017-07-17T04:12:26.884Z,12.83
2017-07-17T04:13:27.551Z,12.79
2017-07-17T04:14:28.173Z,12.79
2017-07-17T04:15:28.795Z,12.79
2017-07-17T04:16:29.447Z,12.83
2017-07-17T04:17:30.064Z,12.83
2017-07-17T04:18:30.732Z,12.83
2017-07-17T04:19:31.348Z,12.79
2017-07-17T04:20:31.969Z,12.72
2017-07-17T04:21:32.619Z,12.73
2017-07-17T04:22:33.237Z,12.76
2017-07-17T04:23:33.937Z,12.73
2017-07-17T04:24:34.556Z,12.68
2017-07-17T04:25:35.172Z,12.73
2017-07-17T04:26:35.793Z,12.67
2017-07-17T04:27:36.413Z,12.72
2017-07-17T04:28:37.079Z,12.73
2017-07-17T04:29:37.728Z,12.68
2017-07-17T04:30:38.353Z,12.67
2017-07-17T04:31:38.957Z,12.70
2017-07-17T04:32:39.608Z,12.73
2017-07-17T04:33:40.275Z,12.72
2017-07-17T04:34:40.897Z,12.72
2017-07-17T04:35:41.514Z,12.80
2017-07-17T04:36:42.139Z,12.73
2017-07-17T04:37:42.746Z,12.79
2017-07-17T04:38:43.447Z,12.94
2017-07-17T04:39:44.065Z,12.91
2017-07-17T04:40:44.716Z,12.95
2017-07-17T04:41:45.334Z,12.94
2017-07-17T04:42:45.984Z,13.00
2017-07-17T04:43:46.652Z,13.01
2017-07-17T04:44:47.301Z,12.97
2017-07-17T04:45:47.917Z,13.04
2017-07-17T04:46:48.534Z,13.05
2017-07-17T04:47:49.162Z,13.04
2017-07-17T04:48:49.828Z,13.08
2017-07-17T04:49:50.443Z,13.05
2017-07-17T04:50:51.065Z,13.08
2017-07-17T04:51:51.715Z,13.05
2017-07-17T04:52:52.336Z,13.04
2017-07-17T04:53:53.001Z,13.01
2017-07-17T04:54:53.617Z,13.01
2017-07-17T04:55:54.234Z,13.03
2017-07-17T04:56:54.884Z,13.04
2017-07-17T04:57:55.503Z,13.00
2017-07-17T04:58:56.171Z,13.04
2017-07-17T04:59:56.789Z,13.01
2017-07-17T05:00:57.406Z,13.00
2017-07-17T05:01:58.022Z,12.97
2017-07-17T05:02:58.641Z,13.01
2017-07-17T05:03:59.307Z,13.03
2017-07-17T05:04:59.924Z,13.09
2017-07-17T05:06:00.571Z,13.04
2017-07-17T05:07:01.173Z,13.13
2017-07-17T05:08:01.824Z,13.05
2017-07-17T05:09:02.476Z,13.08
2017-07-17T05:10:03.094Z,13.08
2017-07-17T05:11:03.711Z,13.09
2017-07-17T05:12:04.328Z,13.12
2017-07-17T05:13:04.951Z,13.05
2017-07-17T05:14:05.641Z,13.03
2017-07-17T05:15:06.245Z,13.01
2017-07-17T05:16:06.863Z,13.00
2017-07-17T05:17:07.486Z,12.95
2017-07-17T05:18:08.102Z,12.95
2017-07-17T05:19:08.774Z,12.91
2017-07-17T05:20:09.395Z,12.91
2017-07-17T05:21:10.011Z,12.98
2017-07-17T05:22:10.627Z,12.95
2017-07-17T05:23:11.251Z,12.93
2017-07-17T05:24:11.922Z,13.00
2017-07-17T05:25:12.541Z,12.97
2017-07-17T05:26:13.156Z,13.01
2017-07-17T05:27:13.772Z,13.01
2017-07-17T05:28:14.390Z,13.01
2017-07-17T05:29:15.058Z,13.01
2017-07-17T05:30:15.675Z,13.05
2017-07-17T05:31:16.292Z,13.11
2017-07-17T05:32:16.915Z,13.09
2017-07-17T05:33:17.565Z,13.04
2017-07-17T05:34:18.259Z,13.09
2017-07-17T05:35:18.863Z,13.13
2017-07-17T05:36:19.482Z,13.01
2017-07-17T05:37:20.101Z,13.16
2017-07-17T05:38:20.718Z,13.05
2017-07-17T05:39:21.417Z,13.12
2017-07-17T05:40:22.067Z,13.05
2017-07-17T05:41:22.668Z,13.11
2017-07-17T05:42:23.288Z,13.15
2017-07-17T05:43:23.936Z,13.01
2017-07-17T05:44:24.606Z,13.22
2017-07-17T05:45:25.251Z,13.18
2017-07-17T05:46:25.880Z,13.09
2017-07-17T05:47:26.484Z,13.15
2017-07-17T05:48:27.102Z,13.15
2017-07-17T05:49:27.991Z,13.19
2017-07-17T05:50:28.602Z,13.22
2017-07-17T05:51:29.222Z,13.28
2017-07-17T05:52:29.837Z,13.28
2017-07-17T05:53:30.455Z,13.39
2017-07-17T05:54:31.125Z,13.49
2017-07-17T05:55:31.739Z,13.46
2017-07-17T05:56:32.363Z,13.57
2017-07-17T05:57:32.977Z,13.57
2017-07-17T05:58:33.594Z,13.63
2017-07-17T05:59:34.263Z,13.65
2017-07-17T06:00:34.882Z,13.63
2017-07-17T06:01:35.502Z,13.77
2017-07-17T06:02:36.154Z,13.81
2017-07-17T06:03:36.776Z,13.78
2017-07-17T06:04:37.441Z,13.79
2017-07-17T06:05:38.064Z,13.78
2017-07-17T06:06:38.711Z,13.87
2017-07-17T06:07:39.308Z,13.87
2017-07-17T06:08:39.930Z,13.81
2017-07-17T06:09:40.598Z,13.92
2017-07-17T06:10:41.241Z,13.97
2017-07-17T06:11:41.847Z,13.97
2017-07-17T06:12:42.467Z,13.85
2017-07-17T06:13:43.089Z,13.96
2017-07-17T06:14:43.754Z,14.03
2017-07-17T06:15:44.373Z,13.97
2017-07-17T06:16:44.992Z,13.99
2017-07-17T06:17:45.608Z,14.03
2017-07-17T06:18:46.253Z,14.00
2017-07-17T06:19:46.909Z,14.10
2017-07-17T06:20:47.525Z,14.03
2017-07-17T06:21:48.169Z,14.07
2017-07-17T06:22:48.821Z,14.07
2017-07-17T06:23:49.439Z,14.14
2017-07-17T06:24:50.109Z,14.10
2017-07-17T06:25:50.727Z,14.12
2017-07-17T06:26:51.360Z,14.18
2017-07-17T06:27:51.970Z,14.17
2017-07-17T06:28:52.627Z,14.18
2017-07-17T06:29:53.292Z,14.25
2017-07-17T06:30:53.912Z,14.15
2017-07-17T06:31:54.531Z,14.32
2017-07-17T06:32:55.155Z,14.18
2017-07-17T06:33:55.769Z,14.30
2017-07-17T06:34:56.488Z,14.30
2017-07-17T06:35:57.107Z,14.28
2017-07-17T06:36:57.726Z,14.33
2017-07-17T06:37:58.345Z,14.35
2017-07-17T06:38:59.003Z,14.36
2017-07-17T06:39:59.677Z,14.40
2017-07-17T06:41:00.292Z,14.35
2017-07-17T06:42:00.911Z,14.41
2017-07-17T06:43:01.529Z,14.40
2017-07-17T06:44:02.149Z,14.37
2017-07-17T06:45:02.824Z,14.37
2017-07-17T06:46:03.466Z,14.41
2017-07-17T06:47:04.096Z,14.33
2017-07-17T06:48:04.702Z,14.35
2017-07-17T06:49:05.321Z,14.36
2017-07-17T06:50:05.992Z,14.35
2017-07-17T06:51:06.611Z,14.43
2017-07-17T06:52:07.261Z,14.47
2017-07-17T06:53:07.895Z,14.48
2017-07-17T06:54:08.522Z,14.48
2017-07-17T06:55:09.226Z,14.55
2017-07-17T06:56:09.843Z,14.60
2017-07-17T06:57:10.463Z,14.69
2017-07-17T06:58:11.122Z,14.65
2017-07-17T06:59:11.710Z,14.68
2017-07-17T07:00:12.413Z,14.65
2017-07-17T07:01:13.031Z,14.68
2017-07-17T07:02:13.652Z,14.62
2017-07-17T07:03:14.272Z,14.65
2017-07-17T07:04:14.890Z,14.65
2017-07-17T07:05:15.599Z,14.63
2017-07-17T07:06:16.220Z,14.68
2017-07-17T07:07:16.842Z,14.72
2017-07-17T07:08:17.465Z,14.81
2017-07-17T07:09:18.082Z,14.78
2017-07-17T07:10:18.760Z,14.84
2017-07-17T07:11:19.413Z,14.96
2017-07-17T07:12:20.033Z,15.04
2017-07-17T07:13:20.657Z,15.04
2017-07-17T07:14:21.275Z,14.94
2017-07-17T07:15:22.053Z,15.06
2017-07-17T07:16:22.695Z,15.14
2017-07-17T07:17:23.298Z,15.07
2017-07-17T07:18:23.945Z,15.11
2017-07-17T07:19:24.578Z,15.18
2017-07-17T07:20:25.261Z,15.09
2017-07-17T07:21:25.867Z,15.10
2017-07-17T07:22:26.489Z,15.17
2017-07-17T07:23:27.109Z,15.21
2017-07-17T07:24:27.729Z,15.09
2017-07-17T07:25:28.433Z,15.22
2017-07-17T07:26:29.052Z,15.22
2017-07-17T07:27:29.680Z,15.22
2017-07-17T07:28:30.297Z,15.24
2017-07-17T07:29:30.923Z,15.17
2017-07-17T07:30:31.593Z,15.18
2017-07-17T07:31:32.213Z,15.37
2017-07-17T07:32:32.839Z,15.36
2017-07-17T07:33:33.463Z,15.33
2017-07-17T07:34:34.117Z,15.54
2017-07-17T07:35:34.787Z,15.52
2017-07-17T07:36:35.408Z,15.62
2017-07-17T07:37:36.060Z,15.64
2017-07-17T07:38:36.680Z,15.76
2017-07-17T07:39:37.301Z,15.68
2017-07-17T07:40:37.977Z,15.77
2017-07-17T07:41:38.593Z,15.72
2017-07-17T07:42:39.271Z,15.84
2017-07-17T07:43:39.879Z,15.95
2017-07-17T07:44:40.503Z,15.90
2017-07-17T07:45:41.171Z,16.01
2017-07-17T07:46:41.793Z,16.05
2017-07-17T07:47:42.445Z,16.02
2017-07-17T07:48:43.083Z,16.23
2017-07-17T07:49:43.690Z,16.16
2017-07-17T07:50:44.356Z,16.28
2017-07-17T07:51:44.977Z,16.28
2017-07-17T07:52:45.598Z,16.21
2017-07-17T07:53:46.254Z,16.17
2017-07-17T07:54:46.871Z,16.10
2017-07-17T07:55:47.496Z,16.26
2017-07-17T07:56:48.121Z,16.21
2017-07-17T07:57:48.739Z,16.13
2017-07-17T07:58:49.393Z,16.02
2017-07-17T07:59:50.048Z,16.01
2017-07-17T08:00:50.751Z,16.08
2017-07-17T08:01:51.430Z,16.02
2017-07-17T08:02:52.038Z,16.04
2017-07-17T08:03:52.660Z,16.08
2017-07-17T08:04:53.303Z,16.05
2017-07-17T08:05:53.963Z,16.20
2017-07-17T08:06:54.585Z,16.24
2017-07-17T08:07:55.205Z,16.29
2017-07-17T08:08:55.827Z,16.24
2017-07-17T08:09:56.446Z,16.26
2017-07-17T08:10:57.144Z,16.28
2017-07-17T08:11:57.751Z,16.31
2017-07-17T08:12:58.379Z,16.38
2017-07-17T08:13:59.002Z,16.41
2017-07-17T08:14:59.621Z,16.39
2017-07-17T08:16:00.291Z,16.39
2017-07-17T08:17:00.916Z,16.49
2017-07-17T08:18:01.576Z,16.53
2017-07-17T08:19:02.195Z,16.57
2017-07-17T08:20:02.817Z,16.58
2017-07-17T08:21:03.488Z,16.68
2017-07-17T08:22:04.111Z,16.66
2017-07-17T08:23:04.734Z,16.83
2017-07-17T08:24:05.353Z,16.83
2017-07-17T08:25:05.973Z,16.97
2017-07-17T08:26:06.646Z,17.19
2017-07-17T08:27:07.267Z,17.19
2017-07-17T08:28:07.921Z,17.19
2017-07-17T08:29:08.542Z,17.23
2017-07-17T08:30:09.165Z,17.29
2017-07-17T08:31:09.838Z,17.29
2017-07-17T08:32:10.460Z,17.23
2017-07-17T08:33:11.113Z,17.15
2017-07-17T08:34:11.719Z,17.19
2017-07-17T08:35:12.341Z,17.29
2017-07-17T08:36:13.017Z,17.36
2017-07-17T08:37:13.670Z,17.46
2017-07-17T08:38:14.291Z,17.48
2017-07-17T08:39:14.941Z,17.59
2017-07-17T08:40:15.550Z,17.56
2017-07-17T08:41:16.226Z,17.70
2017-07-17T08:42:16.844Z,17.74
2017-07-17T08:43:17.466Z,17.86
2017-07-17T08:44:18.088Z,17.83
2017-07-17T08:45:18.709Z,17.86
2017-07-17T08:46:19.631Z,17.82
2017-07-17T08:47:20.254Z,17.83
2017-07-17T08:48:20.878Z,17.92
2017-07-17T08:49:21.506Z,17.92
2017-07-17T08:50:22.124Z,17.97
2017-07-17T08:51:22.800Z,18.01
2017-07-17T08:52:23.419Z,18.03
2017-07-17T08:53:24.041Z,18.01
2017-07-17T08:54:24.727Z,18.10
2017-07-17T08:55:25.318Z,18.19
2017-07-17T08:56:25.991Z,18.33
2017-07-17T08:57:26.614Z,18.44
2017-07-17T08:58:27.269Z,18.55
2017-07-17T08:59:27.917Z,18.60
2017-07-17T09:00:28.527Z,18.60
2017-07-17T09:01:29.201Z,18.59
2017-07-17T09:02:29.853Z,18.59
2017-07-17T09:03:30.485Z,18.62
2017-07-17T09:04:31.102Z,18.73
2017-07-17T09:05:31.758Z,18.74
2017-07-17T09:06:32.464Z,18.83
2017-07-17T09:07:33.087Z,18.73
2017-07-17T09:08:33.741Z,18.68
2017-07-17T09:09:34.342Z,18.62
2017-07-17T09:10:34.968Z,18.66
2017-07-17T09:11:35.637Z,18.71
2017-07-17T09:12:36.262Z,18.80
2017-07-17T09:13:36.911Z,18.73
2017-07-17T09:14:37.522Z,18.93
2017-07-17T09:15:38.171Z,18.86
2017-07-17T09:16:38.829Z,18.92
2017-07-17T09:17:39.455Z,19.11
2017-07-17T09:18:40.075Z,19.16
2017-07-17T09:19:40.730Z,19.34
2017-07-17T09:20:41.339Z,19.36
2017-07-17T09:21:42.011Z,19.36
2017-07-17T09:22:42.634Z,19.39
2017-07-17T09:23:43.258Z,19.21
2017-07-17T09:24:43.880Z,19.31
2017-07-17T09:25:44.509Z,19.14
2017-07-17T09:26:45.184Z,19.04
2017-07-17T09:27:45.804Z,19.04
2017-07-17T09:28:46.427Z,19.14
2017-07-17T09:29:47.049Z,19.27
2017-07-17T09:30:47.672Z,19.36
2017-07-17T09:31:48.354Z,19.29
2017-07-17T09:32:48.975Z,19.29
2017-07-17T09:33:49.601Z,19.29
2017-07-17T09:34:50.229Z,19.29
2017-07-17T09:35:50.847Z,19.22
2017-07-17T09:36:51.520Z,19.19
2017-07-17T09:37:52.145Z,19.16
2017-07-17T09:38:52.802Z,19.18
2017-07-17T09:39:53.464Z,19.12
2017-07-17T09:40:54.083Z,19.09
2017-07-17T09:41:54.756Z,18.86
2017-07-17T09:42:55.381Z,18.89
2017-07-17T09:43:56.005Z,18.80
2017-07-17T09:44:56.632Z,18.75
2017-07-17T09:45:57.279Z,18.58
2017-07-17T09:46:57.941Z,18.62
2017-07-17T09:47:58.563Z,18.62
2017-07-17T09:48:59.187Z,18.77
2017-07-17T09:49:59.844Z,18.74
2017-07-17T09:51:00.449Z,18.95
2017-07-17T09:52:01.128Z,19.14
2017-07-17T09:53:01.757Z,19.30
2017-07-17T09:54:02.376Z,19.49
2017-07-17T09:55:03.007Z,19.55
2017-07-17T09:56:03.626Z,19.67
2017-07-17T09:57:04.301Z,19.67
2017-07-17T09:58:04.925Z,19.62
2017-07-17T09:59:05.550Z,19.70
2017-07-17T10:00:06.198Z,19.81
2017-07-17T10:01:06.810Z,19.79
2017-07-17T10:02:07.519Z,19.82
2017-07-17T10:03:08.148Z,19.86
2017-07-17T10:04:08.769Z,19.85
2017-07-17T10:05:09.426Z,19.82
2017-07-17T10:06:10.084Z,19.88
2017-07-17T10:07:10.758Z,19.95
2017-07-17T10:08:11.387Z,19.92
2017-07-17T10:09:12.038Z,19.91
2017-07-17T10:10:12.673Z,19.94
2017-07-17T10:11:13.282Z,20.06
2017-07-17T10:12:13.957Z,20.11
2017-07-17T10:13:14.581Z,20.14
2017-07-17T10:14:15.237Z,20.25
2017-07-17T10:15:15.860Z,20.16
2017-07-17T10:16:16.489Z,20.19
2017-07-17T10:17:17.161Z,20.19
2017-07-17T10:18:17.784Z,20.18
2017-07-17T10:19:18.413Z,20.16
2017-07-17T10:20:19.035Z,20.14
2017-07-17T10:21:19.658Z,20.09
2017-07-17T10:22:20.335Z,20.02
2017-07-17T10:23:20.965Z,19.99
2017-07-17T10:24:21.624Z,20.04
2017-07-17T10:25:22.248Z,20.06
2017-07-17T10:26:22.903Z,20.09
2017-07-17T10:27:23.854Z,20.16
2017-07-17T10:28:24.517Z,20.21
2017-07-17T10:29:25.165Z,20.36
2017-07-17T10:30:25.777Z,20.48
2017-07-17T10:31:26.400Z,20.63
2017-07-17T10:32:27.074Z,20.78
2017-07-17T10:33:27.700Z,20.81
2017-07-17T10:34:28.325Z,20.84
2017-07-17T10:35:28.949Z,20.85
2017-07-17T10:36:29.576Z,20.87
2017-07-17T10:37:30.531Z,20.78
2017-07-17T10:38:31.183Z,20.69
2017-07-17T10:39:31.840Z,20.80
2017-07-17T10:40:32.463Z,20.77
2017-07-17T10:41:33.088Z,20.56
2017-07-17T10:42:33.762Z,20.59
2017-07-17T10:43:34.385Z,20.62
2017-07-17T10:44:35.014Z,20.66
2017-07-17T10:45:35.638Z,20.63
2017-07-17T10:46:36.265Z,20.80
2017-07-17T10:47:36.937Z,20.85
2017-07-17T10:48:37.565Z,21.00
2017-07-17T10:49:38.221Z,21.02
2017-07-17T10:50:38.847Z,21.14
2017-07-17T10:51:39.481Z,21.18
2017-07-17T10:52:40.228Z,21.27
2017-07-17T10:53:40.854Z,21.25
2017-07-17T10:54:41.484Z,21.22
2017-07-17T10:55:42.105Z,21.35
2017-07-17T10:56:42.731Z,21.51
2017-07-17T10:57:43.407Z,21.54
2017-07-17T10:58:44.031Z,21.69
2017-07-17T10:59:44.655Z,21.60
2017-07-17T11:00:45.309Z,21.57
2017-07-17T11:01:45.922Z,21.64
2017-07-17T11:02:46.596Z,21.70
2017-07-17T11:03:47.225Z,21.79
2017-07-17T11:04:47.848Z,21.93
2017-07-17T11:05:48.473Z,21.96
2017-07-17T11:06:49.158Z,22.07
2017-07-17T11:07:49.866Z,22.10
2017-07-17T11:08:50.516Z,22.15
2017-07-17T11:09:51.161Z,22.26
2017-07-17T11:10:51.770Z,22.28
2017-07-17T11:11:52.397Z,22.33
2017-07-17T11:12:53.071Z,22.35
2017-07-17T11:13:53.696Z,22.41
2017-07-17T11:14:54.324Z,22.35
2017-07-17T11:15:54.954Z,22.35
2017-07-17T11:16:55.577Z,22.33
2017-07-17T11:17:56.258Z,22.41
2017-07-17T11:18:56.881Z,22.44
2017-07-17T11:19:57.506Z,22.54
2017-07-17T11:20:58.131Z,22.53
2017-07-17T11:21:58.761Z,22.43
2017-07-17T11:22:59.435Z,22.39
2017-07-17T11:24:00.060Z,22.33
2017-07-17T11:25:00.690Z,22.33
2017-07-17T11:26:01.316Z,22.39
2017-07-17T11:27:01.973Z,22.55
2017-07-17T11:28:02.633Z,22.66
2017-07-17T11:29:03.263Z,22.70
2017-07-17T11:30:03.885Z,22.83
2017-07-17T11:31:04.537Z,22.93
2017-07-17T11:32:05.150Z,22.90
2017-07-17T11:33:05.825Z,22.91
2017-07-17T11:34:06.452Z,22.94
2017-07-17T11:35:07.079Z,22.85
2017-07-17T11:36:07.705Z,22.85
2017-07-17T11:37:08.331Z,22.81
2017-07-17T11:38:09.007Z,22.96
2017-07-17T11:39:09.632Z,23.00
2017-07-17T11:40:10.285Z,22.83
2017-07-17T11:41:10.898Z,22.76
2017-07-17T11:42:11.523Z,22.72
2017-07-17T11:43:12.200Z,22.60
2017-07-17T11:44:12.835Z,22.50
2017-07-17T11:45:13.499Z,22.75
2017-07-17T11:56:13.062Z,22.54
2017-07-17T11:57:13.682Z,22.54
2017-07-17T11:58:25.410Z,22.59
2017-07-17T11:59:26.085Z,22.65
2017-07-17T12:00:26.721Z,22.63
2017-07-17T12:01:27.338Z,22.69
2017-07-17T12:02:27.993Z,22.68
2017-07-17T12:03:28.620Z,22.80
2017-07-17T12:04:29.293Z,22.76
2017-07-17T12:05:52.121Z,22.80
2017-07-17T12:06:52.746Z,22.91
2017-07-17T12:07:53.375Z,22.94
2017-07-17T12:08:53.998Z,23.10
2017-07-17T12:09:54.674Z,23.25
2017-07-17T12:10:55.300Z,23.34
2017-07-17T12:11:55.927Z,23.39
2017-07-17T12:12:56.556Z,23.51
2017-07-17T12:13:57.180Z,23.56
2017-07-17T12:14:57.861Z,23.58
2017-07-17T12:15:58.484Z,23.50
2017-07-17T12:16:59.111Z,23.50
2017-07-17T12:17:59.742Z,23.36
2017-07-17T12:19:00.369Z,23.34
2017-07-17T12:20:01.045Z,23.36
2017-07-17T12:21:01.671Z,23.25
2017-07-17T12:22:02.312Z,23.18
2017-07-17T12:23:02.926Z,23.23
2017-07-17T12:24:03.586Z,23.31
2017-07-17T12:25:04.287Z,23.27
2017-07-17T12:26:04.905Z,23.23
2017-07-17T12:27:05.531Z,23.37
2017-07-17T12:28:06.157Z,23.46
2017-07-17T12:29:06.788Z,23.63
2017-07-17T12:30:07.463Z,23.92
2017-07-17T12:31:08.119Z,24.03
2017-07-17T12:32:08.749Z,24.08
2017-07-17T12:33:09.374Z,24.01
2017-07-17T12:34:10.002Z,24.01
2017-07-17T12:35:10.684Z,23.93
2017-07-17T12:36:11.317Z,24.02
2017-07-17T12:37:11.969Z,24.06
2017-07-17T12:38:12.598Z,24.02
2017-07-17T12:39:13.223Z,24.10
2017-07-17T12:40:13.902Z,24.14
2017-07-17T12:41:14.565Z,24.10
2017-07-17T12:42:15.221Z,24.02
2017-07-17T12:43:15.848Z,23.91
2017-07-17T12:44:16.477Z,23.78
2017-07-17T12:45:17.441Z,23.66
2017-07-17T12:46:18.071Z,23.61
2017-07-17T12:47:18.725Z,23.74
2017-07-17T12:48:19.359Z,23.77
2017-07-17T12:49:19.982Z,23.65
2017-07-17T12:50:20.686Z,23.44
2017-07-17T12:51:21.299Z,23.47
2017-07-17T12:52:21.927Z,23.47
2017-07-17T12:53:22.609Z,23.61
2017-07-17T12:54:23.224Z,23.65
2017-07-17T12:55:23.902Z,23.78
2017-07-17T12:56:24.528Z,23.87
2017-07-17T12:57:25.185Z,24.03
2017-07-17T12:58:25.798Z,23.98
2017-07-17T12:59:26.425Z,23.98
2017-07-17T13:00:27.100Z,23.95
2017-07-17T13:01:27.730Z,23.86
2017-07-17T13:02:28.357Z,23.92
2017-07-17T13:03:29.016Z,23.87
2017-07-17T13:04:29.645Z,23.77
2017-07-17T13:05:30.356Z,23.71
2017-07-17T13:06:30.984Z,23.55
2017-07-17T13:07:31.616Z,23.62
2017-07-17T13:08:32.267Z,23.63
2017-07-17T13:09:32.883Z,23.59
2017-07-17T13:10:33.564Z,23.68
2017-07-17T13:11:34.189Z,23.68